KCVG/CVG METAR and TAF weather

Enter ICAO airport designator
Station Type Date Time Source
KCVG METAR 2019/07/18 10:52 UTC NOAA

KCVG 181052Z 00000KT 8SM FEW200 22/21 A2997 RMK AO2 SLP138 T02220206


Station Type Date Time Source
KCVG Decoded METAR 2019/07/18 10:52 UTC NOAA

CINCINNATI/NORTHERN KY INTERNATIONAL , KY, United States (KCVG) 39-03N 084-40W 269M
Jul 18, 2019 - 06:52 AM EDT / 2019.07.18 1052 UTC
Wind: Calm:0
Visibility: 8 mile(s):0
Sky conditions: mostly clear
Temperature: 72.0 F (22.2 C)
Dew Point: 69.1 F (20.6 C)
Relative Humidity: 90%
Pressure (altimeter): 29.97 in. Hg (1014 hPa)
ob: KCVG 181052Z 00000KT 8SM FEW200 22/21 A2997 RMK AO2 SLP138 T02220206
cycle: 11

Station Type Date Time Source
KCVG TAF 2019/07/18 09:58 UTC NOAA

TAF
AMD KCVG 180856Z 1809/1912 VRB03KT P6SM FEW200
TEMPO 1810/1812 2SM BR SCT005
FM181200 22005KT P6SM SCT012 SCT200
FM181600 20007KT P6SM SCT030
FM190000 20003KT P6SM SCT250

Example: see airport list